createdAt,value
2023-10-23T07:30:03.636Z,19.74
2023-10-23T07:30:25.943Z,19.74
2023-10-23T07:30:46.088Z,19.74
2023-10-23T07:31:06.754Z,19.77
2023-10-23T07:31:27.355Z,19.77
2023-10-23T07:31:48.106Z,19.79
2023-10-23T07:32:08.745Z,19.76
2023-10-23T07:32:29.397Z,19.76
2023-10-23T07:32:50.039Z,19.81
2023-10-23T07:33:10.671Z,19.81
2023-10-23T07:33:31.280Z,19.82
2023-10-23T07:33:51.915Z,19.85
2023-10-23T07:34:12.621Z,19.84
2023-10-23T07:34:33.270Z,19.84
2023-10-23T07:34:53.898Z,19.84
2023-10-23T07:35:14.537Z,19.84
2023-10-23T07:35:46.742Z,19.82
2023-10-23T07:35:57.951Z,19.88
2023-10-23T07:36:16.569Z,19.86
2023-10-23T07:36:37.199Z,19.91
2023-10-23T07:36:57.853Z,19.89
2023-10-23T07:37:18.495Z,19.91
2023-10-23T07:37:39.117Z,19.92
2023-10-23T07:38:00.635Z,19.94
2023-10-23T07:38:20.231Z,19.94
2023-10-23T07:38:40.843Z,19.95
2023-10-23T07:39:01.471Z,19.94
2023-10-23T07:39:22.089Z,19.95
2023-10-23T07:39:42.763Z,19.96
2023-10-23T07:40:03.404Z,19.99
2023-10-23T07:40:24.118Z,20.00
2023-10-23T07:40:44.736Z,20.02
2023-10-23T07:41:05.342Z,19.99
2023-10-23T07:41:25.960Z,20.04
2023-10-23T07:41:47.498Z,20.07
2023-10-23T07:42:07.132Z,20.06
2023-10-23T07:42:27.826Z,20.04
2023-10-23T07:42:48.440Z,20.07
2023-10-23T07:43:09.112Z,20.07
2023-10-23T07:43:33.386Z,20.10
2023-10-23T07:43:53.812Z,20.11
2023-10-23T07:44:11.406Z,20.11
2023-10-23T07:44:32.003Z,20.13
2023-10-23T07:44:52.623Z,20.10
2023-10-23T07:45:13.243Z,20.13
2023-10-23T07:45:33.907Z,20.16
2023-10-23T07:46:04.146Z,20.14
2023-10-23T07:46:18.602Z,20.18
2023-10-23T07:46:35.989Z,20.19
2023-10-23T07:46:56.755Z,20.16
2023-10-23T07:47:17.444Z,20.18
2023-10-23T07:47:38.057Z,20.24
2023-10-23T07:47:58.670Z,20.22
2023-10-23T07:48:19.321Z,20.25
2023-10-23T07:48:39.995Z,20.25
2023-10-23T07:49:00.621Z,20.22
2023-10-23T07:49:22.149Z,20.25
2023-10-23T07:49:42.273Z,20.24
2023-10-23T07:50:03.105Z,20.26
2023-10-23T07:50:23.704Z,20.25
2023-10-23T07:50:44.314Z,20.31
2023-10-23T07:51:05.013Z,20.29
2023-10-23T07:51:25.649Z,20.28
2023-10-23T07:51:46.298Z,20.31
2023-10-23T07:52:06.940Z,20.31
2023-10-23T07:52:27.548Z,20.32
2023-10-23T07:52:48.162Z,20.34
2023-10-23T07:53:08.781Z,20.37
2023-10-23T07:53:29.403Z,20.40
2023-10-23T07:53:50.021Z,20.39
2023-10-23T07:54:10.642Z,20.36
2023-10-23T07:54:31.259Z,20.36
2023-10-23T07:54:52.065Z,20.43
2023-10-23T07:55:12.711Z,20.43
2023-10-23T07:55:33.360Z,20.44
2023-10-23T07:55:53.953Z,20.41
2023-10-23T07:56:14.672Z,20.41
2023-10-23T07:56:35.315Z,20.47
2023-10-23T07:56:55.954Z,20.43
2023-10-23T07:57:16.588Z,20.47
2023-10-23T07:57:37.971Z,20.48
2023-10-23T07:57:58.091Z,20.44
2023-10-23T07:58:18.806Z,20.51
2023-10-23T07:58:39.556Z,20.50
2023-10-23T07:59:00.181Z,20.55
2023-10-23T07:59:20.797Z,20.50
2023-10-23T07:59:41.564Z,20.51
2023-10-23T08:00:02.325Z,20.51
2023-10-23T08:00:22.927Z,20.51
2023-10-23T08:00:43.601Z,20.52
2023-10-23T08:01:04.202Z,20.55
2023-10-23T08:01:24.876Z,20.55
2023-10-23T08:01:45.640Z,20.58
2023-10-23T08:02:06.411Z,20.56
2023-10-23T08:02:27.199Z,20.56
2023-10-23T08:02:47.993Z,20.56
2023-10-23T08:03:08.773Z,20.51
2023-10-23T08:03:29.595Z,20.56
2023-10-23T08:03:50.483Z,20.60
2023-10-23T08:04:11.355Z,20.58
2023-10-23T08:04:32.064Z,20.59
2023-10-23T08:04:52.749Z,20.60
2023-10-23T08:05:13.543Z,20.56
2023-10-23T08:05:34.182Z,20.60
2023-10-23T08:05:54.835Z,20.62
2023-10-23T08:06:15.450Z,20.59
2023-10-23T08:06:36.066Z,20.60
2023-10-23T08:06:56.730Z,20.58
2023-10-23T08:07:17.392Z,20.62
2023-10-23T08:07:38.045Z,20.62
2023-10-23T08:07:58.662Z,20.59
2023-10-23T08:08:19.262Z,20.58
2023-10-23T08:08:39.888Z,20.60
2023-10-23T08:09:00.498Z,20.62
2023-10-23T08:09:21.113Z,20.63
2023-10-23T08:09:41.876Z,20.59
2023-10-23T08:10:02.582Z,20.62
2023-10-23T08:10:23.253Z,20.60
2023-10-23T08:10:43.909Z,20.62
2023-10-23T08:11:04.525Z,20.62
2023-10-23T08:11:25.134Z,20.65
2023-10-23T08:11:45.781Z,20.60
2023-10-23T08:12:06.398Z,20.66
2023-10-23T08:12:27.009Z,20.63
2023-10-23T08:12:47.647Z,20.65
2023-10-23T08:13:08.277Z,20.66
2023-10-23T08:13:28.867Z,20.66
2023-10-23T08:13:49.485Z,20.65
2023-10-23T08:14:10.086Z,20.66
2023-10-23T08:14:30.689Z,20.66
2023-10-23T08:14:51.307Z,20.66
2023-10-23T08:15:11.926Z,20.66
2023-10-23T08:15:32.557Z,20.65
2023-10-23T08:15:53.991Z,20.67
2023-10-23T08:16:14.022Z,20.66
2023-10-23T08:16:34.747Z,20.70
2023-10-23T08:16:55.493Z,20.72
2023-10-23T08:17:24.212Z,20.72
2023-10-23T08:17:42.591Z,20.67
2023-10-23T08:17:57.295Z,20.69
2023-10-23T08:18:34.141Z,20.66
2023-10-23T08:18:43.118Z,20.67
2023-10-23T08:18:59.311Z,20.74
2023-10-23T08:19:20.119Z,20.69
2023-10-23T08:19:41.037Z,20.72
2023-10-23T08:20:01.428Z,20.70
2023-10-23T08:20:22.032Z,20.69
2023-10-23T08:20:42.662Z,20.74
2023-10-23T08:21:04.288Z,20.72
2023-10-23T08:21:24.401Z,20.70
2023-10-23T08:21:45.030Z,20.70
2023-10-23T08:22:05.666Z,20.75
2023-10-23T08:22:26.355Z,20.70
2023-10-23T08:22:46.950Z,20.70
2023-10-23T08:23:07.543Z,20.75
2023-10-23T08:23:28.156Z,20.80
2023-10-23T08:23:48.782Z,20.74
2023-10-23T08:24:09.406Z,20.72
2023-10-23T08:24:29.991Z,20.77
2023-10-23T08:24:50.652Z,20.75
2023-10-23T08:25:11.335Z,20.75
2023-10-23T08:25:31.967Z,20.80
2023-10-23T08:25:52.577Z,20.77
2023-10-23T08:26:13.700Z,20.74
2023-10-23T08:26:34.110Z,20.81
2023-10-23T08:26:54.729Z,20.75
2023-10-23T08:27:15.346Z,20.78
2023-10-23T08:27:35.974Z,20.77
2023-10-23T08:27:56.624Z,20.77
2023-10-23T08:28:17.254Z,20.78
2023-10-23T08:29:03.180Z,20.77
2023-10-23T08:29:18.955Z,20.80
2023-10-23T08:29:39.719Z,20.80
2023-10-23T08:30:00.421Z,20.84
2023-10-23T08:30:21.048Z,20.81
2023-10-23T08:30:41.668Z,20.82
2023-10-23T08:31:02.372Z,20.82
2023-10-23T08:31:36.938Z,20.84
2023-10-23T08:31:43.574Z,20.85
2023-10-23T08:32:04.359Z,20.81
2023-10-23T08:32:28.766Z,20.81
2023-10-23T08:32:52.477Z,20.81
2023-10-23T08:33:06.161Z,20.84
2023-10-23T08:33:26.924Z,20.81
2023-10-23T08:33:47.596Z,20.81
2023-10-23T08:34:08.662Z,20.82
2023-10-23T08:34:28.872Z,20.85
2023-10-23T08:34:49.519Z,20.84
2023-10-23T08:35:10.117Z,20.84
2023-10-23T08:35:30.732Z,20.85
2023-10-23T08:35:52.409Z,20.85
2023-10-23T08:36:12.191Z,20.87
2023-10-23T08:36:33.011Z,20.84
2023-10-23T08:36:53.752Z,20.85
2023-10-23T08:37:14.512Z,20.85
2023-10-23T08:37:35.264Z,20.85
2023-10-23T08:37:56.182Z,20.84
2023-10-23T08:38:16.825Z,20.85
2023-10-23T08:38:37.442Z,20.85
2023-10-23T08:38:58.036Z,20.90
2023-10-23T08:39:18.642Z,20.88
2023-10-23T08:39:39.473Z,20.90
2023-10-23T08:40:00.259Z,20.85
2023-10-23T08:40:20.917Z,20.85
2023-10-23T08:40:41.494Z,20.90
2023-10-23T08:41:02.113Z,20.92
2023-10-23T08:41:22.719Z,20.92
2023-10-23T08:41:43.335Z,20.90
2023-10-23T08:42:03.952Z,20.88
2023-10-23T08:42:24.575Z,20.92
2023-10-23T08:42:45.204Z,20.93
2023-10-23T08:43:05.841Z,20.87
2023-10-23T08:43:26.526Z,20.88
2023-10-23T08:43:47.151Z,20.85
2023-10-23T08:44:07.756Z,20.90
2023-10-23T08:44:28.391Z,20.87
2023-10-23T08:44:48.989Z,20.90
2023-10-23T08:45:09.621Z,20.93
2023-10-23T08:45:30.229Z,20.92
2023-10-23T08:45:50.857Z,20.93
2023-10-23T08:46:11.494Z,20.93
2023-10-23T08:46:32.190Z,20.93
2023-10-23T08:46:52.847Z,20.95
2023-10-23T08:47:13.531Z,20.93
2023-10-23T08:47:34.218Z,20.96
2023-10-23T08:47:54.853Z,20.93
2023-10-23T08:48:15.496Z,20.92
2023-10-23T08:48:36.110Z,20.95
2023-10-23T08:48:56.779Z,20.90
2023-10-23T08:49:19.122Z,20.97
2023-10-23T08:49:38.560Z,20.95
2023-10-23T08:49:58.876Z,20.93
2023-10-23T08:50:19.499Z,20.93
2023-10-23T08:50:40.111Z,20.96
2023-10-23T08:51:00.763Z,20.96
2023-10-23T08:51:21.378Z,20.95
2023-10-23T08:51:42.086Z,20.96
2023-10-23T08:52:02.764Z,20.93
2023-10-23T08:52:23.364Z,20.95
2023-10-23T08:52:43.957Z,20.95
2023-10-23T08:53:04.623Z,20.99
2023-10-23T08:53:25.243Z,20.95
2023-10-23T08:53:52.000Z,20.97
2023-10-23T08:54:11.074Z,20.96
2023-10-23T08:54:26.893Z,20.96
2023-10-23T08:54:48.226Z,21.00
2023-10-23T08:55:08.510Z,21.00
2023-10-23T08:55:29.150Z,20.97
2023-10-23T08:55:49.758Z,20.96
2023-10-23T08:56:10.376Z,20.99
2023-10-23T08:56:30.999Z,20.97
2023-10-23T08:56:51.629Z,20.96
2023-10-23T08:57:12.236Z,21.00
2023-10-23T08:57:32.840Z,20.97
2023-10-23T08:57:53.485Z,21.02
2023-10-23T08:58:14.120Z,20.97
2023-10-23T08:58:34.729Z,21.00
2023-10-23T08:58:55.336Z,21.02
2023-10-23T08:59:15.954Z,21.03
2023-10-23T08:59:36.574Z,21.00
2023-10-23T08:59:57.175Z,21.00
2023-10-23T09:00:17.824Z,20.99
2023-10-23T09:00:38.434Z,20.99
2023-10-23T09:00:59.173Z,21.03
2023-10-23T09:01:19.873Z,21.00
2023-10-23T09:01:40.879Z,21.02
2023-10-23T09:02:01.850Z,21.05
2023-10-23T09:02:21.829Z,21.05
2023-10-23T09:02:51.873Z,21.03
2023-10-23T09:03:03.006Z,21.05
2023-10-23T09:04:03.394Z,21.02
2023-10-23T09:04:10.016Z,20.97
2023-10-23T09:04:15.941Z,21.02
2023-10-23T09:04:36.692Z,21.05
2023-10-23T09:04:57.424Z,21.03
2023-10-23T09:05:18.232Z,21.00
2023-10-23T09:05:39.248Z,21.06
2023-10-23T09:05:59.892Z,21.05
2023-10-23T09:06:20.502Z,21.05
2023-10-23T09:06:41.348Z,21.05
2023-10-23T09:07:01.846Z,21.02
2023-10-23T09:07:22.565Z,21.07
2023-10-23T09:07:43.169Z,21.06
2023-10-23T09:08:03.820Z,21.03
2023-10-23T09:08:24.444Z,21.06
2023-10-23T09:08:45.065Z,21.06
2023-10-23T09:09:05.658Z,21.05
2023-10-23T09:09:26.514Z,21.07
2023-10-23T09:09:47.182Z,21.06
2023-10-23T09:10:07.806Z,21.06
2023-10-23T09:10:28.421Z,21.09
2023-10-23T09:10:49.038Z,21.06
2023-10-23T09:11:09.656Z,21.05
2023-10-23T09:11:30.260Z,21.11
2023-10-23T09:11:50.876Z,21.07
2023-10-23T09:12:11.491Z,21.11
2023-10-23T09:12:32.094Z,21.06
2023-10-23T09:12:52.792Z,21.07
2023-10-23T09:13:13.424Z,21.06
2023-10-23T09:13:36.078Z,21.07
2023-10-23T09:13:54.753Z,21.05
2023-10-23T09:14:15.359Z,21.09
2023-10-23T09:14:35.970Z,21.06
2023-10-23T09:14:56.580Z,21.09
2023-10-23T09:15:17.198Z,21.09
2023-10-23T09:15:37.969Z,21.06
2023-10-23T09:15:58.598Z,21.06
2023-10-23T09:16:19.367Z,21.12
2023-10-23T09:16:40.078Z,21.09
2023-10-23T09:17:01.216Z,21.09
2023-10-23T09:17:21.550Z,21.11
2023-10-23T09:17:42.242Z,21.12
2023-10-23T09:18:02.881Z,21.11
2023-10-23T09:18:23.473Z,21.11
2023-10-23T09:18:44.137Z,21.14
2023-10-23T09:19:04.842Z,21.14
2023-10-23T09:19:25.435Z,21.14
2023-10-23T09:19:46.050Z,21.12
2023-10-23T09:20:06.667Z,21.11
2023-10-23T09:20:28.658Z,21.14
2023-10-23T09:20:48.113Z,21.09
2023-10-23T09:21:08.753Z,21.12
2023-10-23T09:21:29.417Z,21.12
2023-10-23T09:21:50.184Z,21.11
2023-10-23T09:22:10.818Z,21.14
2023-10-23T09:22:31.419Z,21.12
2023-10-23T09:22:52.022Z,21.14
2023-10-23T09:23:12.703Z,21.15
2023-10-23T09:23:33.319Z,21.17
2023-10-23T09:23:53.937Z,21.12
2023-10-23T09:24:14.560Z,21.14
2023-10-23T09:24:35.181Z,21.17
2023-10-23T09:24:55.813Z,21.11
2023-10-23T09:25:16.504Z,21.14
2023-10-23T09:25:37.115Z,21.12
2023-10-23T09:25:57.737Z,21.14
2023-10-23T09:26:18.346Z,21.14
2023-10-23T09:26:38.958Z,21.15
2023-10-23T09:26:59.615Z,21.18
2023-10-23T09:27:20.239Z,21.12
2023-10-23T09:27:40.874Z,21.14
2023-10-23T09:28:01.535Z,21.15
2023-10-23T09:28:22.230Z,21.12
2023-10-23T09:28:42.822Z,21.14
2023-10-23T09:29:03.458Z,21.17
2023-10-23T09:29:24.098Z,21.14
2023-10-23T09:29:44.718Z,21.12
2023-10-23T09:30:05.335Z,21.12
2023-10-23T09:30:25.951Z,21.15
2023-10-23T09:30:46.643Z,21.17
2023-10-23T09:31:07.388Z,21.12
2023-10-23T09:31:28.165Z,21.17
2023-10-23T09:31:48.990Z,21.12
2023-10-23T09:32:09.630Z,21.17
2023-10-23T09:32:30.268Z,21.17
2023-10-23T09:32:50.923Z,21.17
2023-10-23T09:33:11.636Z,21.15
2023-10-23T09:33:32.259Z,21.14
2023-10-23T09:33:52.910Z,21.17
2023-10-23T09:34:13.621Z,21.14
2023-10-23T09:34:34.217Z,21.09
2023-10-23T09:34:54.818Z,21.15
2023-10-23T09:35:15.476Z,21.14
2023-10-23T09:35:36.091Z,21.17
2023-10-23T09:35:56.717Z,21.14
2023-10-23T09:36:17.344Z,21.14
2023-10-23T09:36:37.946Z,21.12
2023-10-23T09:36:58.630Z,21.15
2023-10-23T09:37:19.390Z,21.15
2023-10-23T09:37:39.989Z,21.15
2023-10-23T09:38:00.652Z,21.15
2023-10-23T09:38:21.272Z,21.14
2023-10-23T09:38:41.888Z,21.14
2023-10-23T09:39:02.507Z,21.11
2023-10-23T09:39:23.599Z,21.15
2023-10-23T09:39:44.076Z,21.09
2023-10-23T09:40:04.829Z,21.12
2023-10-23T09:40:25.672Z,21.12
2023-10-23T09:40:46.269Z,21.11
2023-10-23T09:41:06.888Z,21.12
2023-10-23T09:41:27.497Z,21.14
2023-10-23T09:41:48.643Z,21.17
2023-10-23T09:42:08.800Z,21.15
2023-10-23T09:42:29.414Z,21.15
2023-10-23T09:42:50.051Z,21.12
2023-10-23T09:43:10.766Z,21.11
2023-10-23T09:43:31.367Z,21.14
2023-10-23T09:43:51.987Z,21.11
2023-10-23T09:44:12.615Z,21.09
2023-10-23T09:44:33.225Z,21.12
2023-10-23T09:44:53.835Z,21.09
2023-10-23T09:45:14.454Z,21.14
2023-10-23T09:45:35.060Z,21.12
2023-10-23T09:45:55.715Z,21.15
2023-10-23T09:46:16.416Z,21.17
2023-10-23T09:46:37.063Z,21.11
2023-10-23T09:46:57.702Z,21.14
2023-10-23T09:47:18.345Z,21.14
2023-10-23T09:47:38.956Z,21.15
2023-10-23T09:47:59.579Z,21.14
2023-10-23T09:48:20.283Z,21.12
2023-10-23T09:48:41.088Z,21.12
2023-10-23T09:49:01.938Z,21.15
2023-10-23T09:49:22.389Z,21.15
2023-10-23T09:49:43.264Z,21.15
2023-10-23T09:50:03.912Z,21.12
2023-10-23T09:50:25.255Z,21.14
2023-10-23T09:50:46.197Z,21.12
2023-10-23T09:51:05.955Z,21.15
2023-10-23T09:51:26.572Z,21.15
2023-10-23T09:51:47.211Z,21.15
2023-10-23T09:52:07.860Z,21.14
2023-10-23T09:52:28.487Z,21.09
2023-10-23T09:52:49.098Z,21.14
2023-10-23T09:53:09.703Z,21.15
2023-10-23T09:53:30.323Z,21.14
2023-10-23T09:53:50.939Z,21.15
2023-10-23T09:54:11.787Z,21.15
2023-10-23T09:54:32.419Z,21.14
2023-10-23T09:54:54.868Z,21.15
2023-10-23T09:55:13.709Z,21.14
2023-10-23T09:55:34.311Z,21.14
2023-10-23T09:55:54.978Z,21.12
2023-10-23T09:56:15.556Z,21.11
2023-10-23T09:56:36.164Z,21.15
2023-10-23T09:56:56.778Z,21.14
2023-10-23T09:57:17.426Z,21.15
2023-10-23T09:57:38.023Z,21.12
2023-10-23T09:57:58.644Z,21.12
2023-10-23T09:58:19.311Z,21.15
2023-10-23T09:58:39.933Z,21.15
2023-10-23T09:59:00.554Z,21.14
2023-10-23T09:59:21.199Z,21.14
2023-10-23T09:59:41.819Z,21.17
2023-10-23T10:00:02.480Z,21.12
2023-10-23T10:00:23.071Z,21.18
2023-10-23T10:00:43.765Z,21.17
2023-10-23T10:01:04.481Z,21.12
2023-10-23T10:01:25.177Z,21.14
2023-10-23T10:01:45.936Z,21.12
2023-10-23T10:02:06.722Z,21.15
2023-10-23T10:02:27.433Z,21.14
2023-10-23T10:02:48.117Z,21.12
2023-10-23T10:03:08.969Z,21.18
2023-10-23T10:03:29.701Z,21.12
2023-10-23T10:03:50.413Z,21.12
2023-10-23T10:04:11.120Z,21.12
2023-10-23T10:04:31.821Z,21.17
2023-10-23T10:04:52.446Z,21.15
2023-10-23T10:05:13.066Z,21.15
2023-10-23T10:05:33.700Z,21.18
2023-10-23T10:05:54.318Z,21.15
2023-10-23T10:06:14.923Z,21.14
2023-10-23T10:06:35.558Z,21.15
2023-10-23T10:06:56.733Z,21.11
2023-10-23T10:07:17.011Z,21.11
2023-10-23T10:07:37.608Z,21.17
2023-10-23T10:07:58.222Z,21.18
2023-10-23T10:08:18.832Z,21.12
2023-10-23T10:08:39.442Z,21.17
2023-10-23T10:09:00.074Z,21.14
2023-10-23T10:09:20.699Z,21.14
2023-10-23T10:09:41.644Z,21.15
2023-10-23T10:10:02.044Z,21.15
2023-10-23T10:10:22.693Z,21.17
2023-10-23T10:10:43.306Z,21.18
2023-10-23T10:11:03.911Z,21.15
2023-10-23T10:11:24.542Z,21.15
2023-10-23T10:11:45.164Z,21.17
2023-10-23T10:12:05.776Z,21.17
2023-10-23T10:12:28.388Z,21.15
2023-10-23T10:12:47.293Z,21.14
2023-10-23T10:13:07.973Z,21.15
2023-10-23T10:13:28.618Z,21.14
2023-10-23T10:13:49.258Z,21.14
2023-10-23T10:14:09.883Z,21.18
2023-10-23T10:14:30.503Z,21.14
2023-10-23T10:14:51.140Z,21.14
2023-10-23T10:15:11.775Z,21.18
2023-10-23T10:15:32.376Z,21.15
2023-10-23T10:15:53.103Z,21.18
2023-10-23T10:16:13.899Z,21.18
2023-10-23T10:16:34.615Z,21.12
2023-10-23T10:16:55.288Z,21.15
2023-10-23T10:17:15.907Z,21.18
2023-10-23T10:17:36.559Z,21.14
2023-10-23T10:17:57.182Z,21.17
2023-10-23T10:18:17.851Z,21.18
2023-10-23T10:18:38.453Z,21.20
2023-10-23T10:18:59.121Z,21.14
2023-10-23T10:19:19.806Z,21.14
2023-10-23T10:19:40.754Z,21.18
2023-10-23T10:20:01.138Z,21.15
2023-10-23T10:20:21.749Z,21.14
2023-10-23T10:20:42.387Z,21.20
2023-10-23T10:21:03.083Z,21.15
2023-10-23T10:21:23.708Z,21.20
2023-10-23T10:21:44.358Z,21.17
2023-10-23T10:22:04.980Z,21.18
2023-10-23T10:22:25.590Z,21.17
2023-10-23T10:22:46.217Z,21.20
2023-10-23T10:23:06.842Z,21.18
2023-10-23T10:23:27.507Z,21.20
2023-10-23T10:23:48.116Z,21.21
2023-10-23T10:24:08.733Z,21.18
2023-10-23T10:24:29.361Z,21.20
2023-10-23T10:24:50.024Z,21.22
2023-10-23T10:25:10.642Z,21.21
2023-10-23T10:25:31.269Z,21.22
2023-10-23T10:25:51.867Z,21.22
2023-10-23T10:26:12.491Z,21.24
2023-10-23T10:26:33.102Z,21.25
2023-10-23T10:26:53.755Z,21.20
2023-10-23T10:27:14.343Z,21.24
2023-10-23T10:27:34.969Z,21.18
2023-10-23T10:27:55.629Z,21.22
2023-10-23T10:28:16.292Z,21.25
2023-10-23T10:28:36.926Z,21.21
2023-10-23T10:28:57.570Z,21.25
2023-10-23T10:29:18.186Z,21.27
2023-10-23T10:29:39.033Z,21.22
2023-10-23T10:29:59.778Z,21.24
2023-10-23T10:30:20.430Z,21.29
2023-10-23T10:30:41.035Z,21.25
2023-10-23T10:31:01.812Z,21.25
2023-10-23T10:31:22.532Z,21.27
2023-10-23T10:31:43.350Z,21.22
2023-10-23T10:32:03.966Z,21.22
2023-10-23T10:32:24.472Z,21.29
2023-10-23T10:34:24.364Z,21.30
2023-10-23T10:34:36.984Z,21.25
2023-10-23T10:34:43.353Z,21.27
2023-10-23T10:35:04.104Z,21.25
2023-10-23T10:35:24.851Z,21.24
2023-10-23T10:35:47.872Z,21.25
2023-10-23T10:36:06.121Z,21.24
2023-10-23T10:36:45.974Z,21.25
2023-10-23T10:36:52.639Z,21.30
2023-10-23T10:37:15.399Z,21.29
2023-10-23T10:37:30.120Z,21.27
2023-10-23T10:37:49.877Z,21.25
2023-10-23T10:38:10.467Z,21.24
2023-10-23T10:38:31.100Z,21.27
2023-10-23T10:38:51.702Z,21.27
2023-10-23T10:39:12.320Z,21.27
2023-10-23T10:39:32.927Z,21.27
2023-10-23T10:39:53.601Z,21.25
2023-10-23T10:40:14.212Z,21.27
2023-10-23T10:40:34.818Z,21.29
2023-10-23T10:40:56.059Z,21.29
2023-10-23T10:41:16.378Z,21.27
2023-10-23T10:41:36.997Z,21.29
2023-10-23T10:41:57.605Z,21.25
2023-10-23T10:42:18.227Z,21.25
2023-10-23T10:42:38.835Z,21.29
2023-10-23T10:42:59.504Z,21.25
2023-10-23T10:43:20.140Z,21.27
2023-10-23T10:43:40.901Z,21.25
2023-10-23T10:44:01.545Z,21.25
2023-10-23T10:44:22.161Z,21.29
2023-10-23T10:44:42.787Z,21.27
2023-10-23T10:45:03.385Z,21.30
2023-10-23T10:45:23.989Z,21.25
2023-10-23T10:45:44.687Z,21.27
2023-10-23T10:46:05.639Z,21.24
2023-10-23T10:46:25.977Z,21.29
2023-10-23T10:46:49.888Z,21.27
2023-10-23T10:47:07.222Z,21.25
2023-10-23T10:47:27.938Z,21.27
2023-10-23T10:47:48.683Z,21.24
2023-10-23T10:48:09.297Z,21.25
2023-10-23T10:48:29.902Z,21.30
2023-10-23T10:48:50.580Z,21.25
2023-10-23T10:49:11.647Z,21.27
2023-10-23T10:49:31.919Z,21.27
2023-10-23T10:49:52.533Z,21.29
2023-10-23T10:50:13.155Z,21.27
2023-10-23T10:50:33.763Z,21.27
2023-10-23T10:50:54.391Z,21.29
2023-10-23T10:51:15.009Z,21.25
2023-10-23T10:51:35.666Z,21.22
2023-10-23T10:51:56.373Z,21.27
2023-10-23T10:52:16.986Z,21.29
2023-10-23T10:52:37.614Z,21.25
2023-10-23T10:52:58.244Z,21.25
2023-10-23T10:53:18.870Z,21.27
2023-10-23T10:53:39.612Z,21.25
2023-10-23T10:54:00.255Z,21.30
2023-10-23T10:54:20.882Z,21.27
2023-10-23T10:54:41.514Z,21.25
2023-10-23T10:55:02.161Z,21.27
2023-10-23T10:55:22.840Z,21.30
2023-10-23T10:55:43.455Z,21.25
2023-10-23T10:56:04.097Z,21.25
2023-10-23T10:56:24.708Z,21.25
2023-10-23T10:56:45.344Z,21.25
2023-10-23T10:57:05.952Z,21.27
2023-10-23T10:57:26.569Z,21.25
2023-10-23T10:57:47.218Z,21.27
2023-10-23T10:58:08.126Z,21.27
2023-10-23T10:58:28.823Z,21.25
2023-10-23T10:58:49.454Z,21.27
2023-10-23T10:59:10.065Z,21.25
2023-10-23T10:59:30.690Z,21.22
2023-10-23T10:59:51.293Z,21.24
2023-10-23T11:00:11.947Z,21.25
2023-10-23T11:00:32.601Z,21.22
2023-10-23T11:00:53.311Z,21.20
2023-10-23T11:01:14.118Z,21.22
2023-10-23T11:01:35.056Z,21.20
2023-10-23T11:01:55.277Z,21.18
2023-10-23T11:02:15.924Z,21.18
2023-10-23T11:02:36.573Z,21.20
2023-10-23T11:02:57.334Z,21.20
2023-10-23T11:03:18.049Z,21.17
2023-10-23T11:03:38.819Z,21.14
2023-10-23T11:03:59.521Z,21.20
2023-10-23T11:04:20.262Z,21.12
2023-10-23T11:04:41.003Z,21.12
2023-10-23T11:05:01.640Z,21.15
2023-10-23T11:05:22.255Z,21.12
2023-10-23T11:05:42.917Z,21.12
2023-10-23T11:06:03.527Z,21.12
2023-10-23T11:06:25.199Z,21.11
2023-10-23T11:06:44.875Z,21.11
2023-10-23T11:07:05.585Z,21.11
2023-10-23T11:07:26.256Z,21.05
2023-10-23T11:07:46.899Z,21.11
2023-10-23T11:08:07.534Z,21.09
2023-10-23T11:08:28.154Z,21.06
2023-10-23T11:08:48.761Z,21.09
2023-10-23T11:09:09.381Z,21.07
2023-10-23T11:09:30.243Z,21.06
2023-10-23T11:09:50.926Z,21.03
2023-10-23T11:10:11.622Z,21.06
2023-10-23T11:10:32.330Z,21.03
2023-10-23T11:10:52.947Z,21.06
2023-10-23T11:11:13.554Z,21.03
2023-10-23T11:11:34.179Z,21.00
2023-10-23T11:11:54.870Z,21.06
2023-10-23T11:12:15.451Z,21.05
2023-10-23T11:12:36.081Z,21.05
2023-10-23T11:12:56.767Z,20.99
2023-10-23T11:13:17.495Z,21.00
2023-10-23T11:13:38.242Z,21.00
2023-10-23T11:14:00.037Z,21.06
2023-10-23T11:14:19.418Z,21.00
2023-10-23T11:14:40.039Z,21.02
2023-10-23T11:15:00.661Z,21.00
2023-10-23T11:15:21.257Z,20.97
2023-10-23T11:15:41.879Z,21.02
2023-10-23T11:16:02.660Z,21.02
2023-10-23T11:16:23.406Z,21.05
2023-10-23T11:16:44.122Z,21.02
2023-10-23T11:17:04.779Z,21.02
2023-10-23T11:17:25.764Z,20.99
2023-10-23T11:17:46.515Z,21.02
2023-10-23T11:18:07.206Z,21.05
2023-10-23T11:18:27.791Z,21.05
2023-10-23T11:18:48.417Z,20.97
2023-10-23T11:19:09.122Z,21.00
2023-10-23T11:19:29.868Z,20.97
2023-10-23T11:19:50.514Z,20.97
2023-10-23T11:20:11.150Z,20.99
2023-10-23T11:20:31.786Z,21.00
2023-10-23T11:20:52.394Z,21.00
2023-10-23T11:21:13.012Z,20.96
2023-10-23T11:21:33.631Z,20.99
2023-10-23T11:21:54.279Z,21.00
2023-10-23T11:22:14.903Z,21.02
2023-10-23T11:22:35.514Z,21.00
2023-10-23T11:22:56.110Z,20.97
2023-10-23T11:23:16.726Z,21.02
2023-10-23T11:23:37.349Z,21.00
2023-10-23T11:23:57.954Z,21.02
2023-10-23T11:24:18.557Z,21.03
2023-10-23T11:24:39.175Z,21.02
2023-10-23T11:24:59.975Z,21.03
2023-10-23T11:25:20.644Z,21.05
2023-10-23T11:25:41.310Z,21.06
2023-10-23T11:26:01.935Z,21.09
2023-10-23T11:26:22.536Z,21.06
2023-10-23T11:26:43.184Z,21.06
2023-10-23T11:27:03.801Z,21.09
2023-10-23T11:27:24.403Z,21.11
2023-10-23T11:27:45.047Z,21.07
2023-10-23T11:28:05.679Z,21.11
2023-10-23T11:28:26.375Z,21.12
2023-10-23T11:28:47.001Z,21.11
2023-10-23T11:29:07.614Z,21.11
2023-10-23T11:29:28.223Z,21.11
2023-10-23T11:29:48.838Z,21.09
2023-10-23T11:30:09.470Z,21.12
2023-10-23T11:30:30.082Z,21.12
2023-10-23T11:30:50.733Z,21.14
2023-10-23T11:31:11.593Z,21.14
2023-10-23T11:31:32.271Z,21.18
2023-10-23T11:31:52.985Z,21.17
2023-10-23T11:32:14.752Z,21.15
2023-10-23T11:32:34.589Z,21.15
2023-10-23T11:32:55.190Z,21.20
2023-10-23T11:33:15.824Z,21.21
2023-10-23T11:33:36.443Z,21.20
2023-10-23T11:33:57.141Z,21.22
2023-10-23T11:34:17.852Z,21.21
2023-10-23T11:34:38.454Z,21.21
2023-10-23T11:34:59.141Z,21.24
2023-10-23T11:35:19.749Z,21.20
2023-10-23T11:35:40.360Z,21.20
2023-10-23T11:36:01.012Z,21.25
2023-10-23T11:36:21.608Z,21.22
2023-10-23T11:36:42.228Z,21.22
2023-10-23T11:37:02.909Z,21.25
2023-10-23T11:37:23.555Z,21.24
2023-10-23T11:37:44.179Z,21.24
2023-10-23T11:38:05.875Z,21.30
2023-10-23T11:38:25.765Z,21.25
2023-10-23T11:38:46.383Z,21.27
2023-10-23T11:39:07.027Z,21.25
2023-10-23T11:39:27.652Z,21.29
2023-10-23T11:39:48.298Z,21.27
2023-10-23T11:40:08.946Z,21.30
2023-10-23T11:40:29.552Z,21.25
2023-10-23T11:40:50.192Z,21.27
2023-10-23T11:41:10.822Z,21.32
2023-10-23T11:41:31.444Z,21.35
2023-10-23T11:41:52.109Z,21.33
2023-10-23T11:42:12.723Z,21.35
2023-10-23T11:42:33.339Z,21.27
2023-10-23T11:42:53.997Z,21.33
2023-10-23T11:43:14.686Z,21.35
2023-10-23T11:43:35.284Z,21.33
2023-10-23T11:43:55.902Z,21.32
2023-10-23T11:44:16.533Z,21.33
2023-10-23T11:44:37.152Z,21.33
2023-10-23T11:44:58.816Z,21.33
2023-10-23T11:45:18.537Z,21.33
2023-10-23T11:45:39.162Z,21.35
2023-10-23T11:45:59.870Z,21.33
2023-10-23T11:46:20.672Z,21.36
2023-10-23T11:46:41.407Z,21.33
2023-10-23T11:47:02.225Z,21.35
2023-10-23T11:47:22.882Z,21.36
2023-10-23T11:47:43.525Z,21.37
2023-10-23T11:48:04.153Z,21.39
2023-10-23T11:48:24.753Z,21.36
2023-10-23T11:48:45.403Z,21.37
2023-10-23T11:49:06.091Z,21.39
2023-10-23T11:49:26.722Z,21.37
2023-10-23T11:49:47.421Z,21.40
2023-10-23T11:50:08.080Z,21.37
2023-10-23T11:50:28.700Z,21.40
2023-10-23T11:50:49.329Z,21.39
2023-10-23T11:51:09.940Z,21.36
2023-10-23T11:51:30.554Z,21.36
2023-10-23T11:51:51.221Z,21.39
2023-10-23T11:52:11.942Z,21.40
2023-10-23T11:52:32.548Z,21.42
2023-10-23T11:52:53.191Z,21.40
2023-10-23T11:53:13.805Z,21.39
2023-10-23T11:53:34.431Z,21.40
2023-10-23T11:53:55.033Z,21.42
2023-10-23T11:54:15.641Z,21.45
2023-10-23T11:54:36.252Z,21.42
2023-10-23T11:54:56.910Z,21.43
2023-10-23T11:55:17.545Z,21.42
2023-10-23T11:55:38.185Z,21.42
2023-10-23T11:55:58.781Z,21.43
2023-10-23T11:56:19.389Z,21.43
2023-10-23T11:56:40.004Z,21.43
2023-10-23T11:57:00.699Z,21.43
2023-10-23T11:57:21.339Z,21.40
2023-10-23T11:57:42.015Z,21.45